createdAt,value
2023-05-19T00:01:20.971Z,11.64
2023-05-19T00:03:52.931Z,11.61
2023-05-19T00:06:27.033Z,11.59
2023-05-19T00:09:10.078Z,11.57
2023-05-19T00:11:40.281Z,11.58
2023-05-19T00:14:10.073Z,11.60
2023-05-19T00:16:39.951Z,11.63
2023-05-19T00:19:10.514Z,11.62
2023-05-19T00:21:40.567Z,11.63
2023-05-19T00:24:09.747Z,11.61
2023-05-19T00:26:38.937Z,11.59
2023-05-19T00:29:07.946Z,11.57
2023-05-19T00:31:37.286Z,11.58
2023-05-19T00:34:06.724Z,11.60
2023-05-19T00:36:35.746Z,11.61
2023-05-19T00:39:04.873Z,11.61
2023-05-19T00:41:33.952Z,11.59
2023-05-19T00:44:02.983Z,11.57
2023-05-19T00:46:32.101Z,11.53
2023-05-19T00:49:00.968Z,11.49
2023-05-19T00:51:30.140Z,11.46
2023-05-19T00:53:59.251Z,11.43
2023-05-19T00:56:28.272Z,11.45
2023-05-19T00:58:57.477Z,11.46
2023-05-19T01:01:27.250Z,11.48
2023-05-19T01:03:59.406Z,11.49
2023-05-19T01:06:30.149Z,11.48
2023-05-19T01:08:59.381Z,11.47
2023-05-19T01:11:28.332Z,11.44
2023-05-19T01:13:57.405Z,11.43
2023-05-19T01:16:32.557Z,11.46
2023-05-19T01:19:37.133Z,11.49
2023-05-19T01:22:14.978Z,11.52
2023-05-19T01:25:05.368Z,11.52
2023-05-19T01:27:43.583Z,11.49
2023-05-19T01:30:28.151Z,11.46
2023-05-19T01:33:03.581Z,11.42
2023-05-19T01:35:35.694Z,11.42
2023-05-19T01:38:05.682Z,11.43
2023-05-19T01:40:35.897Z,11.45
2023-05-19T01:43:05.192Z,11.46
2023-05-19T01:45:34.544Z,11.46
2023-05-19T01:48:04.528Z,11.45
2023-05-19T01:50:34.674Z,11.43
2023-05-19T01:53:03.981Z,11.41
2023-05-19T01:55:33.097Z,11.39
2023-05-19T01:58:20.992Z,11.41
2023-05-19T02:01:29.117Z,11.44
2023-05-19T02:04:26.524Z,11.47
2023-05-19T02:07:24.822Z,11.42
2023-05-19T02:10:08.353Z,11.37
2023-05-19T02:12:40.928Z,11.34
2023-05-19T02:15:25.109Z,11.32
2023-05-19T02:17:55.859Z,11.32
2023-05-19T02:20:25.013Z,11.33
2023-05-19T02:22:53.964Z,11.33
2023-05-19T02:25:24.650Z,11.33
2023-05-19T02:27:54.674Z,11.32
2023-05-19T02:30:23.852Z,11.30
2023-05-19T02:32:54.421Z,11.26
2023-05-19T02:35:23.681Z,11.23
2023-05-19T02:37:52.587Z,11.24
2023-05-19T02:40:22.733Z,11.24
2023-05-19T02:42:51.604Z,11.24
2023-05-19T02:45:20.589Z,11.25
2023-05-19T02:47:49.656Z,11.23
2023-05-19T02:50:18.790Z,11.22
2023-05-19T02:52:48.173Z,11.21
2023-05-19T02:55:20.343Z,11.20
2023-05-19T02:57:49.514Z,11.19
2023-05-19T03:00:18.830Z,11.19
2023-05-19T03:02:47.862Z,11.20
2023-05-19T03:05:17.073Z,11.21
2023-05-19T03:07:46.952Z,11.22
2023-05-19T03:10:16.255Z,11.21
2023-05-19T03:12:45.374Z,11.20
2023-05-19T03:15:15.138Z,11.19
2023-05-19T03:17:44.245Z,11.20
2023-05-19T03:20:15.813Z,11.24
2023-05-19T03:22:44.803Z,11.27
2023-05-19T03:25:14.211Z,11.30
2023-05-19T03:27:43.840Z,11.32
2023-05-19T03:30:13.655Z,11.32
2023-05-19T03:32:42.846Z,11.31
2023-05-19T03:35:11.912Z,11.27
2023-05-19T03:37:40.804Z,11.26
2023-05-19T03:40:10.688Z,11.28
2023-05-19T03:42:39.575Z,11.31
2023-05-19T03:45:09.567Z,11.34
2023-05-19T03:47:38.910Z,11.35
2023-05-19T03:50:10.019Z,11.32
2023-05-19T03:52:40.117Z,11.27
2023-05-19T03:55:09.425Z,11.25
2023-05-19T03:57:38.504Z,11.25
2023-05-19T04:00:08.362Z,11.25
2023-05-19T04:02:37.329Z,11.28
2023-05-19T04:05:07.373Z,11.30
2023-05-19T04:07:36.933Z,11.30
2023-05-19T04:10:06.831Z,11.30
2023-05-19T04:12:35.754Z,11.28
2023-05-19T04:15:08.282Z,11.26
2023-05-19T04:17:37.444Z,11.26
2023-05-19T04:20:07.703Z,11.28
2023-05-19T04:22:36.660Z,11.32
2023-05-19T04:25:06.185Z,11.35
2023-05-19T04:27:38.947Z,11.37
2023-05-19T04:30:08.890Z,11.35
2023-05-19T04:32:38.047Z,11.34
2023-05-19T04:35:07.331Z,11.33
2023-05-19T04:37:38.165Z,11.34
2023-05-19T04:40:11.203Z,11.35
2023-05-19T04:42:46.180Z,11.34
2023-05-19T04:45:15.623Z,11.36
2023-05-19T04:47:47.031Z,11.36
2023-05-19T04:50:17.104Z,11.38
2023-05-19T04:52:46.641Z,11.38
2023-05-19T04:55:16.019Z,11.38
2023-05-19T04:57:45.101Z,11.40
2023-05-19T05:00:15.515Z,11.43
2023-05-19T05:02:44.697Z,11.49
2023-05-19T05:05:13.889Z,11.52
2023-05-19T05:07:43.168Z,11.53
2023-05-19T05:10:12.076Z,11.52
2023-05-19T05:12:41.683Z,11.53
2023-05-19T05:15:11.670Z,11.52
2023-05-19T05:17:40.902Z,11.52
2023-05-19T05:20:11.857Z,11.56
2023-05-19T05:22:41.036Z,11.59
2023-05-19T05:25:11.496Z,11.63
2023-05-19T05:27:40.563Z,11.63
2023-05-19T05:30:09.757Z,11.64
2023-05-19T05:32:38.809Z,11.65
2023-05-19T05:35:08.861Z,11.67
2023-05-19T05:37:38.088Z,11.69
2023-05-19T05:40:08.904Z,11.73
2023-05-19T05:42:37.776Z,11.78
2023-05-19T05:45:07.723Z,11.75
2023-05-19T05:47:38.565Z,11.76
2023-05-19T05:50:10.025Z,11.78
2023-05-19T05:52:40.643Z,11.78
2023-05-19T05:55:10.783Z,11.81
2023-05-19T05:57:42.218Z,11.86
2023-05-19T06:00:18.061Z,11.92
2023-05-19T06:02:50.816Z,11.97
2023-05-19T06:05:20.422Z,12.02
2023-05-19T06:07:49.593Z,12.03
2023-05-19T06:10:18.863Z,12.04
2023-05-19T06:12:48.374Z,12.06
2023-05-19T06:15:17.486Z,12.08
2023-05-19T06:17:46.613Z,12.12
2023-05-19T06:20:16.384Z,12.14
2023-05-19T06:22:45.768Z,12.15
2023-05-19T06:25:14.868Z,12.13
2023-05-19T06:27:43.961Z,12.11
2023-05-19T06:30:13.956Z,12.10
2023-05-19T06:32:42.987Z,12.09
2023-05-19T06:35:12.066Z,12.09
2023-05-19T06:37:40.926Z,12.06
2023-05-19T06:40:11.634Z,12.03
2023-05-19T06:42:40.584Z,11.99
2023-05-19T06:45:10.264Z,11.96
2023-05-19T06:47:41.772Z,11.94
2023-05-19T06:50:10.945Z,11.94
2023-05-19T06:52:39.857Z,11.96
2023-05-19T06:55:08.990Z,12.01
2023-05-19T06:57:38.278Z,12.08
2023-05-19T07:00:13.958Z,12.13
2023-05-19T07:02:44.492Z,12.16
2023-05-19T07:05:13.598Z,12.20
2023-05-19T07:07:44.278Z,12.25
2023-05-19T07:10:13.247Z,12.32
2023-05-19T07:12:42.210Z,12.37
2023-05-19T07:15:11.739Z,12.39
2023-05-19T07:17:40.879Z,12.41
2023-05-19T07:20:10.485Z,12.40
2023-05-19T07:22:40.291Z,12.39
2023-05-19T07:25:10.087Z,12.40
2023-05-19T07:27:39.167Z,12.40
2023-05-19T07:30:08.576Z,12.42
2023-05-19T07:32:37.670Z,12.45
2023-05-19T07:35:07.033Z,12.46
2023-05-19T07:37:38.436Z,12.44
2023-05-19T07:40:08.473Z,12.38
2023-05-19T07:42:37.451Z,12.33
2023-05-19T07:45:07.226Z,12.31
2023-05-19T07:47:36.243Z,12.33
2023-05-19T07:50:06.204Z,12.35
2023-05-19T07:52:35.373Z,12.37
2023-05-19T07:55:04.465Z,12.38
2023-05-19T07:57:33.376Z,12.41
2023-05-19T08:00:02.434Z,12.45
2023-05-19T08:02:31.662Z,12.48
2023-05-19T08:05:00.921Z,12.48
2023-05-19T08:07:29.948Z,12.50
2023-05-19T08:09:58.808Z,12.52
2023-05-19T08:12:28.006Z,12.58
2023-05-19T08:14:58.182Z,12.62
2023-05-19T08:17:28.921Z,12.63
2023-05-19T08:19:58.164Z,12.64
2023-05-19T08:22:27.300Z,12.68
2023-05-19T08:24:57.078Z,12.77
2023-05-19T08:27:26.378Z,12.88
2023-05-19T08:29:56.194Z,12.97
2023-05-19T08:32:25.335Z,13.03
2023-05-19T08:34:54.604Z,13.07
2023-05-19T08:37:23.581Z,13.09
2023-05-19T08:39:52.615Z,13.06
2023-05-19T08:42:22.115Z,13.01
2023-05-19T08:44:51.569Z,12.97
2023-05-19T08:47:21.017Z,12.96
2023-05-19T08:49:53.591Z,12.99
2023-05-19T08:52:27.269Z,13.03
2023-05-19T08:55:06.346Z,13.04
2023-05-19T08:57:36.838Z,13.07
2023-05-19T09:00:11.814Z,13.11
2023-05-19T09:02:50.575Z,13.14
2023-05-19T09:05:30.656Z,13.09
2023-05-19T09:08:02.711Z,13.05
2023-05-19T09:10:31.728Z,13.00
2023-05-19T09:13:00.723Z,12.96
2023-05-19T09:15:30.969Z,12.93
2023-05-19T09:18:10.656Z,12.90
2023-05-19T09:20:41.618Z,12.87
2023-05-19T09:23:18.405Z,12.83
2023-05-19T09:25:53.768Z,12.81
2023-05-19T09:28:26.889Z,12.84
2023-05-19T09:31:22.739Z,12.88
2023-05-19T09:33:53.505Z,12.92
2023-05-19T09:36:22.683Z,12.93
2023-05-19T09:38:52.065Z,12.94
2023-05-19T09:41:23.416Z,12.94
2023-05-19T09:43:58.873Z,12.92
2023-05-19T09:46:28.537Z,12.89
2023-05-19T09:48:58.760Z,12.89
2023-05-19T09:51:28.075Z,12.93
2023-05-19T09:53:58.669Z,12.96
2023-05-19T09:56:33.145Z,12.99
2023-05-19T09:59:05.417Z,13.02
2023-05-19T10:01:36.339Z,13.02
2023-05-19T10:04:06.094Z,13.00
2023-05-19T10:06:35.947Z,12.99
2023-05-19T10:09:05.292Z,12.98
2023-05-19T10:11:34.608Z,13.03
2023-05-19T10:14:04.211Z,13.08
2023-05-19T10:16:33.649Z,13.11
2023-05-19T10:19:02.770Z,13.15
2023-05-19T10:21:31.994Z,13.17
2023-05-19T10:24:01.164Z,13.21
2023-05-19T10:26:31.544Z,13.23
2023-05-19T10:29:02.390Z,13.23
2023-05-19T10:31:33.960Z,13.21
2023-05-19T10:34:14.631Z,13.19
2023-05-19T10:36:46.746Z,13.21
2023-05-19T10:39:33.166Z,13.24
2023-05-19T10:42:16.176Z,13.27
2023-05-19T10:45:13.584Z,13.27
2023-05-19T10:47:42.765Z,13.29
2023-05-19T10:50:12.254Z,13.30
2023-05-19T10:52:41.231Z,13.32
2023-05-19T10:55:15.877Z,13.35
2023-05-19T10:57:54.850Z,13.40
2023-05-19T11:00:28.401Z,13.42
2023-05-19T11:03:14.257Z,13.43
2023-05-19T11:05:45.808Z,13.42
2023-05-19T11:08:14.849Z,13.42
2023-05-19T11:10:46.196Z,13.43
2023-05-19T11:13:22.621Z,13.40
2023-05-19T11:15:52.180Z,13.36
2023-05-19T11:18:21.552Z,13.35
2023-05-19T11:20:58.136Z,13.35
2023-05-19T11:23:27.398Z,13.40
2023-05-19T11:25:56.927Z,13.43
2023-05-19T11:28:26.752Z,13.45
2023-05-19T11:30:58.320Z,13.44
2023-05-19T11:33:27.419Z,13.43
2023-05-19T11:36:00.273Z,13.41
2023-05-19T11:38:30.914Z,13.39
2023-05-19T11:41:00.852Z,13.39
2023-05-19T11:43:29.838Z,13.39
2023-05-19T11:45:59.655Z,13.41
2023-05-19T11:48:29.860Z,13.46
2023-05-19T11:51:01.187Z,13.50
2023-05-19T11:53:33.434Z,13.51
2023-05-19T11:56:04.818Z,13.54
2023-05-19T11:58:33.913Z,13.57
2023-05-19T12:01:04.644Z,13.61
2023-05-19T12:03:33.684Z,13.67
2023-05-19T12:06:06.283Z,13.75
2023-05-19T12:08:36.059Z,13.86
2023-05-19T12:11:05.339Z,13.99
2023-05-19T12:13:35.637Z,14.13
2023-05-19T12:16:04.968Z,14.24
2023-05-19T12:18:37.610Z,14.34
2023-05-19T12:21:07.436Z,14.43
2023-05-19T12:23:36.806Z,14.49
2023-05-19T12:26:06.288Z,14.52
2023-05-19T12:28:36.423Z,14.50
2023-05-19T12:31:05.902Z,14.43
2023-05-19T12:33:35.677Z,14.31
2023-05-19T12:36:05.873Z,14.23
2023-05-19T12:38:37.785Z,14.18
2023-05-19T12:41:07.320Z,14.15
2023-05-19T12:43:37.591Z,14.10
2023-05-19T12:46:13.322Z,14.06
2023-05-19T12:48:46.331Z,14.02
2023-05-19T12:51:19.477Z,13.99
2023-05-19T12:53:50.496Z,13.94
2023-05-19T12:56:19.523Z,13.91
2023-05-19T12:58:53.938Z,13.86
2023-05-19T13:01:24.256Z,13.85
2023-05-19T13:03:53.856Z,13.85
2023-05-19T13:06:23.290Z,13.86
2023-05-19T13:08:52.493Z,13.87
2023-05-19T13:11:21.881Z,13.86
2023-05-19T13:13:51.036Z,13.84
2023-05-19T13:16:20.097Z,13.82
2023-05-19T13:18:49.162Z,13.79
2023-05-19T13:21:18.300Z,13.79
2023-05-19T13:23:47.756Z,13.81
2023-05-19T13:26:17.185Z,13.84
2023-05-19T13:28:46.419Z,13.86
2023-05-19T13:31:15.467Z,13.89
2023-05-19T13:33:44.647Z,13.90
2023-05-19T13:36:13.650Z,13.91
2023-05-19T13:38:42.810Z,13.91
2023-05-19T13:41:13.707Z,13.88
2023-05-19T13:43:42.957Z,13.86
2023-05-19T13:46:11.991Z,13.83
2023-05-19T13:48:41.376Z,13.83
2023-05-19T13:51:10.441Z,13.88
2023-05-19T13:53:39.743Z,13.95
2023-05-19T13:56:08.673Z,14.03
2023-05-19T13:58:37.566Z,14.07
2023-05-19T14:01:06.688Z,14.10
2023-05-19T14:03:37.318Z,14.09
2023-05-19T14:06:08.237Z,14.06
2023-05-19T14:08:37.413Z,14.04
2023-05-19T14:11:06.794Z,14.00
2023-05-19T14:13:39.685Z,13.98
2023-05-19T14:16:11.306Z,13.94
2023-05-19T14:18:40.527Z,13.89
2023-05-19T14:21:09.913Z,13.81
2023-05-19T14:23:38.843Z,13.75
2023-05-19T14:26:08.125Z,13.71
2023-05-19T14:28:37.071Z,13.69
2023-05-19T14:31:07.050Z,13.70
2023-05-19T14:33:36.467Z,13.71
2023-05-19T14:36:06.416Z,13.73
2023-05-19T14:38:35.715Z,13.73
2023-05-19T14:41:05.060Z,13.75
2023-05-19T14:43:33.990Z,13.76
2023-05-19T14:46:03.154Z,13.80
2023-05-19T14:48:32.346Z,13.84
2023-05-19T14:51:01.334Z,13.88
2023-05-19T14:53:30.464Z,13.91
2023-05-19T14:55:59.532Z,13.92
2023-05-19T14:58:29.402Z,13.95
2023-05-19T15:00:59.428Z,13.97
2023-05-19T15:03:28.689Z,13.94
2023-05-19T15:05:57.788Z,13.91
2023-05-19T15:08:26.858Z,13.89
2023-05-19T15:10:55.895Z,13.88
2023-05-19T15:13:26.582Z,13.87
2023-05-19T15:16:08.469Z,13.83
2023-05-19T15:18:45.147Z,13.81
2023-05-19T15:21:14.457Z,13.77
2023-05-19T15:23:43.409Z,13.73
2023-05-19T15:26:12.353Z,13.70
2023-05-19T15:28:41.532Z,13.70
2023-05-19T15:31:10.622Z,13.74
2023-05-19T15:33:39.740Z,13.78
2023-05-19T15:36:08.769Z,13.80
2023-05-19T15:38:37.743Z,13.81
2023-05-19T15:41:08.293Z,13.80
2023-05-19T15:43:37.381Z,13.81
2023-05-19T15:46:06.340Z,13.82
2023-05-19T15:48:35.602Z,13.83
2023-05-19T15:51:05.040Z,13.85
2023-05-19T15:53:34.054Z,13.88
2023-05-19T15:56:04.696Z,13.91
2023-05-19T15:58:33.836Z,13.92
2023-05-19T16:01:02.984Z,13.92
2023-05-19T16:03:32.575Z,13.93
2023-05-19T16:06:01.770Z,13.91
2023-05-19T16:08:31.287Z,13.87
2023-05-19T16:11:00.537Z,13.82
2023-05-19T16:13:30.597Z,13.81
2023-05-19T16:15:59.726Z,13.82
2023-05-19T16:18:29.491Z,13.83
2023-05-19T16:20:58.466Z,13.84
2023-05-19T16:23:27.657Z,13.83
2023-05-19T16:25:57.814Z,13.81
2023-05-19T16:28:28.066Z,13.74
2023-05-19T16:30:59.188Z,13.71
2023-05-19T16:33:28.466Z,13.71
2023-05-19T16:36:00.959Z,13.74
2023-05-19T16:38:30.056Z,13.76
2023-05-19T16:40:58.896Z,13.75
2023-05-19T16:43:28.152Z,13.72
2023-05-19T16:45:57.291Z,13.69
2023-05-19T16:48:26.439Z,13.67
2023-05-19T16:50:55.676Z,13.66
2023-05-19T16:53:24.503Z,13.68
2023-05-19T16:55:53.558Z,13.73
2023-05-19T16:58:22.439Z,13.75
2023-05-19T17:00:52.588Z,13.76
2023-05-19T17:03:21.751Z,13.76
2023-05-19T17:05:50.775Z,13.76
2023-05-19T17:08:19.678Z,13.74
2023-05-19T17:10:48.729Z,13.73
2023-05-19T17:13:17.677Z,13.73
2023-05-19T17:15:46.804Z,13.76
2023-05-19T17:18:16.202Z,13.77
2023-05-19T17:20:45.604Z,13.78
2023-05-19T17:23:14.626Z,13.77
2023-05-19T17:25:43.488Z,13.75
2023-05-19T17:28:12.492Z,13.73
2023-05-19T17:30:41.696Z,13.72
2023-05-19T17:33:10.954Z,13.73
2023-05-19T17:35:41.553Z,13.74
2023-05-19T17:38:10.757Z,13.76
2023-05-19T17:40:41.959Z,13.73
2023-05-19T17:43:11.461Z,13.70
2023-05-19T17:45:41.700Z,13.68
2023-05-19T17:48:11.900Z,13.63
2023-05-19T17:50:40.783Z,13.61
2023-05-19T17:53:09.846Z,13.60
2023-05-19T17:55:39.314Z,13.62
2023-05-19T17:58:08.699Z,13.64
2023-05-19T18:00:38.244Z,13.64
2023-05-19T18:03:08.080Z,13.63
2023-05-19T18:05:37.878Z,13.59
2023-05-19T18:08:09.482Z,13.55
2023-05-19T18:10:39.857Z,13.53
2023-05-19T18:13:10.748Z,13.54
2023-05-19T18:15:40.258Z,13.55
2023-05-19T18:18:10.889Z,13.57
2023-05-19T18:20:41.251Z,13.57
2023-05-19T18:23:10.310Z,13.56
2023-05-19T18:25:39.531Z,13.52
2023-05-19T18:28:11.725Z,13.50
2023-05-19T18:30:40.629Z,13.50
2023-05-19T18:33:09.983Z,13.50
2023-05-19T18:35:38.924Z,13.49
2023-05-19T18:38:07.907Z,13.46
2023-05-19T18:40:36.966Z,13.41
2023-05-19T18:43:06.152Z,13.36
2023-05-19T18:45:36.604Z,13.34
2023-05-19T18:48:07.464Z,13.34
2023-05-19T18:50:36.570Z,13.37
2023-05-19T18:53:05.714Z,13.39
2023-05-19T18:55:36.435Z,13.40
2023-05-19T18:58:07.297Z,13.38
2023-05-19T19:00:36.516Z,13.35
2023-05-19T19:03:05.677Z,13.33
2023-05-19T19:05:34.774Z,13.33
2023-05-19T19:08:05.755Z,13.33
2023-05-19T19:10:39.440Z,13.35
2023-05-19T19:13:08.538Z,13.35
2023-05-19T19:15:37.915Z,13.33
2023-05-19T19:18:08.241Z,13.31
2023-05-19T19:20:37.690Z,13.29
2023-05-19T19:23:06.895Z,13.30
2023-05-19T19:25:35.893Z,13.31
2023-05-19T19:28:04.956Z,13.32
2023-05-19T19:30:34.251Z,13.33
2023-05-19T19:33:04.763Z,13.31
2023-05-19T19:35:35.065Z,13.28
2023-05-19T19:38:04.091Z,13.26
2023-05-19T19:40:33.173Z,13.26
2023-05-19T19:43:02.269Z,13.27
2023-05-19T19:45:32.508Z,13.29
2023-05-19T19:48:01.936Z,13.30
2023-05-19T19:50:31.398Z,13.30
2023-05-19T19:53:01.157Z,13.28
2023-05-19T19:55:31.445Z,13.26
2023-05-19T19:58:01.058Z,13.26
2023-05-19T20:00:30.012Z,13.28
2023-05-19T20:05:30.880Z,13.27
2023-05-19T20:07:59.951Z,13.24
2023-05-19T20:10:29.022Z,13.22
2023-05-19T20:12:59.366Z,13.22
2023-05-19T20:15:28.519Z,13.23
2023-05-19T20:17:57.516Z,13.26
2023-05-19T20:20:26.724Z,13.28
2023-05-19T20:22:55.955Z,13.30
2023-05-19T20:25:25.103Z,13.29
2023-05-19T20:27:53.980Z,13.28
2023-05-19T20:30:22.962Z,13.26
2023-05-19T20:32:51.977Z,13.25
2023-05-19T20:35:21.076Z,13.28
2023-05-19T20:37:49.967Z,13.30
2023-05-19T20:40:18.904Z,13.31
2023-05-19T20:42:47.963Z,13.31
2023-05-19T20:45:17.136Z,13.29
2023-05-19T20:47:46.343Z,13.23
2023-05-19T20:50:15.549Z,13.22
2023-05-19T20:52:44.439Z,13.22
2023-05-19T20:55:13.829Z,13.23
2023-05-19T20:57:44.817Z,13.24
2023-05-19T21:00:14.385Z,13.25
2023-05-19T21:02:43.476Z,13.26
2023-05-19T21:05:12.826Z,13.26
2023-05-19T21:07:41.922Z,13.25
2023-05-19T21:10:14.001Z,13.25
2023-05-19T21:12:42.865Z,13.25
2023-05-19T21:15:11.837Z,13.26
2023-05-19T21:17:40.828Z,13.28
2023-05-19T21:20:11.078Z,13.29
2023-05-19T21:22:41.217Z,13.28
2023-05-19T21:25:10.488Z,13.24
2023-05-19T21:27:39.672Z,13.22
2023-05-19T21:30:09.870Z,13.23
2023-05-19T21:32:39.156Z,13.25
2023-05-19T21:35:08.949Z,13.27
2023-05-19T21:37:38.310Z,13.25
2023-05-19T21:40:08.520Z,13.22
2023-05-19T21:42:37.530Z,13.20
2023-05-19T21:45:07.287Z,13.18
2023-05-19T21:47:36.395Z,13.19
2023-05-19T21:50:06.346Z,13.21
2023-05-19T21:52:36.781Z,13.22
2023-05-19T21:55:08.192Z,13.24
2023-05-19T21:57:37.214Z,13.23
2023-05-19T22:00:07.904Z,13.22
2023-05-19T22:02:37.015Z,13.20
2023-05-19T22:05:06.667Z,13.19
2023-05-19T22:07:35.959Z,13.20
2023-05-19T22:10:05.795Z,13.22
2023-05-19T22:12:34.906Z,13.23
2023-05-19T22:15:04.296Z,13.25
2023-05-19T22:17:33.315Z,13.25
2023-05-19T22:20:02.368Z,13.24
2023-05-19T22:22:31.310Z,13.22
2023-05-19T22:25:00.363Z,13.21
2023-05-19T22:27:29.473Z,13.22
2023-05-19T22:29:59.891Z,13.24
2023-05-19T22:32:29.088Z,13.25
2023-05-19T22:34:57.992Z,13.27
2023-05-19T22:37:29.033Z,13.27
2023-05-19T22:39:57.998Z,13.24
2023-05-19T22:42:27.225Z,13.21
2023-05-19T22:44:56.293Z,13.19
2023-05-19T22:47:39.770Z,13.18
2023-05-19T22:50:16.740Z,13.18
2023-05-19T22:52:52.304Z,13.19
2023-05-19T22:55:21.657Z,13.21
2023-05-19T22:57:50.539Z,13.21
2023-05-19T23:00:21.084Z,13.22
2023-05-19T23:02:50.085Z,13.20
2023-05-19T23:05:19.089Z,13.19
2023-05-19T23:07:48.070Z,13.20
2023-05-19T23:10:16.967Z,13.23
2023-05-19T23:12:46.117Z,13.25
2023-05-19T23:15:15.140Z,13.26
2023-05-19T23:17:44.129Z,13.26
2023-05-19T23:20:13.844Z,13.26
2023-05-19T23:22:42.756Z,13.25
2023-05-19T23:25:11.853Z,13.26
2023-05-19T23:27:41.134Z,13.29
2023-05-19T23:30:10.284Z,13.32
2023-05-19T23:32:40.911Z,13.32
2023-05-19T23:35:14.359Z,13.30
2023-05-19T23:37:43.255Z,13.28
2023-05-19T23:40:13.995Z,13.25
2023-05-19T23:42:44.727Z,13.26
2023-05-19T23:45:13.927Z,13.27
2023-05-19T23:47:42.831Z,13.28
2023-05-19T23:50:12.013Z,13.28
2023-05-19T23:52:41.009Z,13.26
2023-05-19T23:55:12.802Z,13.25
2023-05-19T23:57:42.287Z,13.25
